Time;durP1;ratioP1;P1;durP2;ratioP2;P2;SDS_P1;SDS_P2;PMS_P1;PMS_P2;Temp;Humidity;BMP_temperature;BMP_pressure;BME280_temperature;BME280_humidity;BME280_pressure;Samples;Min_cycle;Max_cycle;Signal;HPM_P1;HPM_P2
2023/07/29 00:02:16;;;;;;;105.72;35.50;;;;;;;;;;5080357;28;20415;-63
2023/07/29 00:04:41;;;;;;;104.78;35.13;;;;;;;;;;5076348;28;20021;-62
2023/07/29 00:07:07;;;;;;;152.48;39.40;;;;;;;;;;5076834;28;20020;-69
2023/07/29 00:09:32;;;;;;;139.75;37.05;;;;;;;;;;5078397;28;20069;-69
2023/07/29 00:11:57;;;;;;;142.07;38.05;;;;;;;;;;5085709;28;20107;-62
2023/07/29 00:14:22;;;;;;;157.65;38.83;;;;;;;;;;5081166;28;20021;-62
2023/07/29 00:16:47;;;;;;;132.85;37.78;;;;;;;;;;5078060;28;20028;-62
2023/07/29 00:19:13;;;;;;;138.93;39.47;;;;;;;;;;5089668;28;20127;-62
2023/07/29 00:21:39;;;;;;;142.60;39.17;;;;;;;;;;5086100;28;20479;-63
2023/07/29 00:24:05;;;;;;;132.05;39.13;;;;;;;;;;5074978;28;20067;-62
2023/07/29 00:26:30;;;;;;;137.55;38.97;;;;;;;;;;5079130;28;20498;-62
2023/07/29 00:28:58;;;;;;;154.05;40.05;;;;;;;;;;5075062;28;20020;-62
2023/07/29 00:31:23;;;;;;;141.02;38.35;;;;;;;;;;5077349;28;20024;-62
2023/07/29 00:33:49;;;;;;;143.15;40.00;;;;;;;;;;5077192;28;20020;-62
2023/07/29 00:36:14;;;;;;;140.48;39.80;;;;;;;;;;5079503;28;20063;-62
2023/07/29 00:38:39;;;;;;;139.57;39.78;;;;;;;;;;5074887;28;20036;-62
2023/07/29 00:41:04;;;;;;;138.48;39.80;;;;;;;;;;5085724;28;20099;-63
2023/07/29 00:43:30;;;;;;;123.55;41.08;;;;;;;;;;5077781;28;20079;-62
2023/07/29 00:45:57;;;;;;;136.63;41.00;;;;;;;;;;5074963;28;20078;-62
2023/07/29 00:48:22;;;;;;;141.48;39.95;;;;;;;;;;5085339;28;20384;-62
2023/07/29 00:50:47;;;;;;;129.90;38.90;;;;;;;;;;5076455;28;20024;-62
2023/07/29 00:53:13;;;;;;;124.85;38.17;;;;;;;;;;5079303;28;20032;-62
2023/07/29 00:55:38;;;;;;;131.57;38.42;;;;;;;;;;5075898;28;20033;-62
2023/07/29 00:58:04;;;;;;;129.13;37.22;;;;;;;;;;5074808;28;20518;-62
2023/07/29 01:03:32;;;;;;;158.88;38.20;;;;;;;;;;5089528;22;20071;-69
2023/07/29 01:06:07;;;;;;;205.55;40.25;;;;;;;;;;5071435;28;20099;-70
2023/07/29 01:08:53;;;;;;;163.98;39.60;;;;;;;;;;5078978;22;20219;-68
2023/07/29 01:11:18;;;;;;;150.70;39.60;;;;;;;;;;5090557;28;20032;-69
2023/07/29 01:14:09;;;;;;;174.95;41.92;;;;;;;;;;5092760;28;20020;-68
2023/07/29 01:16:48;;;;;;;163.88;41.42;;;;;;;;;;5080462;28;20059;-62
2023/07/29 01:19:25;;;;;;;149.75;41.75;;;;;;;;;;5092145;28;20055;-65
2023/07/29 01:21:50;;;;;;;180.65;41.47;;;;;;;;;;5093808;28;20019;-62
2023/07/29 01:24:15;;;;;;;215.23;42.90;;;;;;;;;;5090616;28;20384;-61
2023/07/29 01:26:41;;;;;;;196.77;40.65;;;;;;;;;;5091932;28;20054;-62
2023/07/29 01:29:06;;;;;;;163.30;40.15;;;;;;;;;;5090962;28;20085;-62
2023/07/29 01:31:34;;;;;;;214.77;42.08;;;;;;;;;;5093529;28;20078;-62
2023/07/29 01:34:06;;;;;;;141.07;38.95;;;;;;;;;;5092951;28;20374;-62
2023/07/29 01:36:31;;;;;;;;;;;;;;;;;;5091703;28;20024;-62
2023/07/29 01:38:57;;;;;;;148.73;39.30;;;;;;;;;;5092720;28;19904;-62
2023/07/29 01:41:22;;;;;;;153.05;41.20;;;;;;;;;;5088472;28;20270;-62
2023/07/29 01:43:48;;;;;;;156.00;42.92;;;;;;;;;;5092686;28;20034;-62
2023/07/29 01:46:14;;;;;;;165.80;42.58;;;;;;;;;;5091449;28;20375;-61
2023/07/29 01:48:39;;;;;;;161.13;40.90;;;;;;;;;;5092985;28;20023;-67
2023/07/29 01:51:05;;;;;;;164.80;42.50;;;;;;;;;;5093079;28;20028;-66
2023/07/29 01:53:30;;;;;;;149.98;40.25;;;;;;;;;;5093176;28;20073;-68
2023/07/29 01:55:56;;;;;;;155.02;41.13;;;;;;;;;;5091738;28;20031;-70
2023/07/29 01:58:22;;;;;;;152.20;39.58;;;;;;;;;;5091645;28;20548;-68
2023/07/29 02:00:47;;;;;;;146.35;38.20;;;;;;;;;;5092736;28;20048;-68
2023/07/29 02:03:13;;;;;;;150.32;37.97;;;;;;;;;;5093140;28;20448;-67
2023/07/29 02:05:38;;;;;;;131.15;35.20;;;;;;;;;;5101720;28;20032;-67
2023/07/29 02:08:03;;;;;;;131.40;36.20;;;;;;;;;;5098514;28;20059;-68
2023/07/29 02:10:28;;;;;;;126.82;35.72;;;;;;;;;;5101101;28;20023;-67
2023/07/29 02:12:53;;;;;;;129.18;36.20;;;;;;;;;;5093464;28;20720;-67
2023/07/29 02:15:19;;;;;;;130.63;36.40;;;;;;;;;;5093130;28;20016;-68
2023/07/29 02:17:44;;;;;;;125.47;37.88;;;;;;;;;;5098729;28;20024;-67
2023/07/29 02:20:10;;;;;;;125.97;37.10;;;;;;;;;;5092061;28;20071;-67
2023/07/29 02:22:36;;;;;;;140.55;39.28;;;;;;;;;;5092906;28;20024;-66
2023/07/29 02:25:02;;;;;;;132.75;38.05;;;;;;;;;;5093344;28;20088;-62
2023/07/29 02:27:28;;;;;;;121.50;36.88;;;;;;;;;;5103493;28;20024;-62
2023/07/29 02:29:53;;;;;;;136.15;38.53;;;;;;;;;;5094243;28;20018;-61
2023/07/29 02:32:19;;;;;;;122.30;35.70;;;;;;;;;;5092830;28;20378;-62
2023/07/29 02:34:44;;;;;;;121.60;35.67;;;;;;;;;;5096116;28;20015;-61
2023/07/29 02:37:09;;;;;;;133.90;36.95;;;;;;;;;;5106980;28;20036;-61
2023/07/29 02:39:34;;;;;;;126.38;34.95;;;;;;;;;;5101209;28;20115;-62
2023/07/29 02:42:00;;;;;;;121.80;33.85;;;;;;;;;;5094337;28;20024;-62
2023/07/29 02:44:25;;;;;;;115.85;33.85;;;;;;;;;;5092722;28;20020;-62
2023/07/29 02:46:52;;;;;;;114.43;32.35;;;;;;;;;;5097099;28;20084;-61
2023/07/29 02:49:17;;;;;;;109.82;32.00;;;;;;;;;;5092557;28;20051;-61
2023/07/29 02:51:43;;;;;;;107.97;31.10;;;;;;;;;;5105083;28;20059;-62
2023/07/29 02:54:08;;;;;;;105.60;31.08;;;;;;;;;;5111491;28;20027;-62
2023/07/29 02:56:33;;;;;;;115.90;32.45;;;;;;;;;;5105436;28;20085;-62
2023/07/29 02:58:58;;;;;;;101.10;30.52;;;;;;;;;;5094471;28;20038;-62
2023/07/29 03:01:26;;;;;;;98.13;29.88;;;;;;;;;;5107190;28;20189;-62
2023/07/29 03:03:52;;;;;;;89.88;29.02;;;;;;;;;;5093753;28;20114;-62
2023/07/29 03:06:17;;;;;;;83.55;28.33;;;;;;;;;;5110459;28;20102;-62
2023/07/29 03:08:42;;;;;;;90.70;28.25;;;;;;;;;;5105543;28;20085;-62
2023/07/29 03:11:08;;;;;;;90.57;28.67;;;;;;;;;;5109501;28;20448;-62
2023/07/29 03:13:34;;;;;;;92.35;28.88;;;;;;;;;;5092407;28;20066;-62
2023/07/29 03:16:08;;;;;;;86.28;28.35;;;;;;;;;;5092231;28;20028;-62
2023/07/29 03:18:34;;;;;;;89.70;28.40;;;;;;;;;;5101535;28;20016;-61
2023/07/29 03:20:59;;;;;;;85.25;27.55;;;;;;;;;;5093976;28;20035;-62
2023/07/29 03:23:24;;;;;;;83.32;27.38;;;;;;;;;;5093847;28;20043;-62
2023/07/29 03:25:56;;;;;;;84.50;27.10;;;;;;;;;;5100429;28;20016;-62
2023/07/29 03:28:21;;;;;;;74.55;26.35;;;;;;;;;;5103154;28;20023;-61
2023/07/29 03:30:47;;;;;;;84.50;27.10;;;;;;;;;;5108792;28;20036;-62
2023/07/29 03:33:12;;;;;;;74.38;27.13;;;;;;;;;;5105527;28;20012;-62
2023/07/29 03:35:37;;;;;;;81.30;27.95;;;;;;;;;;5096153;28;20016;-63
2023/07/29 03:38:02;;;;;;;80.40;28.30;;;;;;;;;;5102550;28;20471;-62
2023/07/29 03:40:28;;;;;;;76.07;27.83;;;;;;;;;;5115003;28;20462;-62
2023/07/29 03:42:53;;;;;;;77.18;28.40;;;;;;;;;;5103633;28;20444;-62
2023/07/29 03:45:18;;;;;;;80.63;28.10;;;;;;;;;;5096232;28;20016;-67
2023/07/29 03:47:43;;;;;;;76.03;29.10;;;;;;;;;;5097631;28;20034;-66
2023/07/29 03:50:09;;;;;;;77.35;28.58;;;;;;;;;;5114570;28;20520;-66
2023/07/29 03:52:34;;;;;;;76.95;28.08;;;;;;;;;;5114884;28;20131;-67
2023/07/29 03:54:59;;;;;;;83.95;28.90;;;;;;;;;;5114786;28;20023;-62
2023/07/29 03:57:24;;;;;;;80.25;28.20;;;;;;;;;;5109491;28;20023;-62
2023/07/29 03:59:49;;;;;;;74.65;27.67;;;;;;;;;;5113201;28;20063;-62
2023/07/29 04:02:15;;;;;;;70.38;27.25;;;;;;;;;;5114703;28;20446;-62
2023/07/29 04:04:42;;;;;;;74.03;27.35;;;;;;;;;;5114492;28;20027;-62
2023/07/29 04:07:07;;;;;;;77.07;28.08;;;;;;;;;;5113475;28;20051;-62
2023/07/29 04:09:32;;;;;;;79.35;28.27;;;;;;;;;;5097442;28;20085;-62
2023/07/29 04:11:58;;;;;;;71.82;27.70;;;;;;;;;;5096011;28;20028;-63
2023/07/29 04:14:23;;;;;;;72.40;28.35;;;;;;;;;;5097938;28;20050;-62
2023/07/29 04:16:49;;;;;;;73.97;26.90;;;;;;;;;;5097197;28;20071;-63
2023/07/29 04:19:14;;;;;;;84.38;28.27;;;;;;;;;;5104179;28;20391;-62
2023/07/29 04:21:39;;;;;;;68.38;27.05;;;;;;;;;;5095574;28;20027;-62
2023/07/29 04:24:05;;;;;;;77.97;29.20;;;;;;;;;;5096374;28;20028;-65
2023/07/29 04:26:30;;;;;;;74.45;28.25;;;;;;;;;;5095449;28;20108;-62
2023/07/29 04:28:55;;;;;;;76.18;30.20;;;;;;;;;;5098519;28;20064;-62
2023/07/29 04:31:20;;;;;;;76.30;29.17;;;;;;;;;;5105268;28;20107;-61
2023/07/29 04:33:46;;;;;;;77.13;29.92;;;;;;;;;;5103033;28;20080;-62
2023/07/29 04:36:11;;;;;;;74.38;29.98;;;;;;;;;;5108209;28;20485;-63
2023/07/29 04:38:37;;;;;;;71.50;30.10;;;;;;;;;;5101411;28;20024;-62
2023/07/29 04:41:02;;;;;;;72.97;29.65;;;;;;;;;;5107474;28;20115;-62
2023/07/29 04:43:31;;;;;;;72.90;30.42;;;;;;;;;;5096440;28;20383;-62
2023/07/29 04:45:56;;;;;;;66.70;29.17;;;;;;;;;;5097875;28;20073;-61
2023/07/29 04:48:21;;;;;;;68.55;29.38;;;;;;;;;;5100074;28;20027;-62
2023/07/29 04:50:47;;;;;;;72.55;29.33;;;;;;;;;;5098938;28;20028;-62
2023/07/29 04:53:12;;;;;;;67.75;28.40;;;;;;;;;;5111398;28;20073;-62
2023/07/29 04:55:37;;;;;;;66.18;27.77;;;;;;;;;;5114038;28;20483;-62
2023/07/29 04:58:02;;;;;;;59.10;26.20;;;;;;;;;;5111182;28;20482;-62
2023/07/29 05:00:28;;;;;;;65.82;26.45;;;;;;;;;;5109337;28;20471;-62
2023/07/29 05:02:53;;;;;;;61.90;26.88;;;;;;;;;;5094750;28;20016;-62
2023/07/29 05:05:18;;;;;;;61.42;27.55;;;;;;;;;;5094745;28;20027;-66
2023/07/29 05:07:43;;;;;;;62.47;27.77;;;;;;;;;;5097135;28;20027;-67
2023/07/29 05:10:09;;;;;;;63.97;29.83;;;;;;;;;;5101363;28;20131;-67
2023/07/29 05:12:34;;;;;;;65.32;29.50;;;;;;;;;;5097499;28;20051;-67
2023/07/29 05:14:59;;;;;;;69.38;30.02;;;;;;;;;;5098900;28;20032;-67
2023/07/29 05:17:25;;;;;;;72.90;30.65;;;;;;;;;;5095140;28;20024;-67
2023/07/29 05:19:50;;;;;;;69.28;29.90;;;;;;;;;;5099929;28;20028;-67
2023/07/29 05:22:16;;;;;;;65.45;29.25;;;;;;;;;;5111620;28;20069;-67
2023/07/29 05:24:41;;;;;;;56.55;27.25;;;;;;;;;;5105724;28;20020;-67
2023/07/29 05:27:08;;;;;;;58.17;27.15;;;;;;;;;;5113017;28;20534;-67
2023/07/29 05:29:33;;;;;;;52.22;26.30;;;;;;;;;;5110533;28;20019;-66
2023/07/29 05:31:58;;;;;;;51.58;26.25;;;;;;;;;;5113070;28;20413;-67
2023/07/29 05:34:24;;;;;;;48.85;25.60;;;;;;;;;;5113297;28;20027;-67
2023/07/29 05:36:49;;;;;;;46.70;24.83;;;;;;;;;;5113067;28;20038;-67
2023/07/29 05:39:14;;;;;;;44.63;25.05;;;;;;;;;;5107677;28;20452;-67
2023/07/29 05:41:39;;;;;;;40.88;24.58;;;;;;;;;;5103947;28;20747;-67
2023/07/29 05:44:05;;;;;;;40.30;23.83;;;;;;;;;;5100011;28;20028;-67
2023/07/29 05:46:30;;;;;;;35.33;22.52;;;;;;;;;;5096460;28;20081;-67
2023/07/29 05:48:55;;;;;;;39.47;23.05;;;;;;;;;;5106284;28;20522;-67
2023/07/29 05:51:20;;;;;;;40.08;23.65;;;;;;;;;;5094930;28;20487;-67
2023/07/29 05:53:45;;;;;;;38.97;22.10;;;;;;;;;;5093660;28;20565;-67
2023/07/29 05:56:11;;;;;;;33.92;20.67;;;;;;;;;;5093565;28;20026;-68
2023/07/29 05:58:36;;;;;;;31.88;20.10;;;;;;;;;;5103648;28;20424;-66
2023/07/29 06:01:01;;;;;;;26.98;20.50;;;;;;;;;;5092767;28;20076;-66
2023/07/29 06:03:26;;;;;;;27.92;19.40;;;;;;;;;;5113005;28;20490;-67
2023/07/29 06:05:52;;;;;;;27.98;19.15;;;;;;;;;;5111155;28;20145;-67
2023/07/29 06:08:17;;;;;;;24.73;17.48;;;;;;;;;;5087105;28;20108;-62
2023/07/29 06:10:42;;;;;;;24.33;17.05;;;;;;;;;;5085211;28;20035;-62
2023/07/29 06:13:08;;;;;;;24.13;16.67;;;;;;;;;;5089087;28;20520;-62
2023/07/29 06:15:33;;;;;;;23.70;15.57;;;;;;;;;;5080873;28;20021;-62
2023/07/29 06:17:58;;;;;;;20.75;15.57;;;;;;;;;;5073172;28;20028;-62
2023/07/29 06:20:23;;;;;;;23.25;15.77;;;;;;;;;;5075174;28;20480;-62
2023/07/29 06:22:49;;;;;;;25.67;15.35;;;;;;;;;;5088518;28;20058;-62
2023/07/29 06:25:14;;;;;;;22.30;15.27;;;;;;;;;;5073139;28;20031;-62
2023/07/29 06:27:39;;;;;;;23.85;15.77;;;;;;;;;;5072563;28;20472;-63
2023/07/29 06:30:05;;;;;;;24.10;15.73;;;;;;;;;;5079349;28;20035;-63
2023/07/29 06:32:31;;;;;;;21.05;14.52;;;;;;;;;;5088449;28;20448;-62
2023/07/29 06:34:56;;;;;;;18.42;13.82;;;;;;;;;;5091543;28;20020;-62
2023/07/29 06:37:22;;;;;;;20.33;14.07;;;;;;;;;;5074175;28;20564;-62
2023/07/29 06:39:47;;;;;;;18.63;12.63;;;;;;;;;;5074269;28;20105;-62
2023/07/29 06:42:12;;;;;;;14.05;10.65;;;;;;;;;;5086714;28;20057;-63
2023/07/29 06:44:38;;;;;;;17.55;10.98;;;;;;;;;;5090891;28;20062;-62
2023/07/29 06:47:03;;;;;;;13.90;9.93;;;;;;;;;;5074037;28;20029;-63
2023/07/29 06:49:28;;;;;;;14.48;9.02;;;;;;;;;;5074014;28;20017;-62
2023/07/29 06:51:53;;;;;;;12.02;8.43;;;;;;;;;;5079754;28;20039;-62
2023/07/29 06:54:19;;;;;;;10.10;7.35;;;;;;;;;;5091233;28;20016;-62
2023/07/29 06:56:46;;;;;;;12.82;8.07;;;;;;;;;;5091022;28;20051;-62
2023/07/29 06:59:11;;;;;;;12.68;7.55;;;;;;;;;;5088505;28;20024;-63
2023/07/29 07:01:37;;;;;;;14.82;9.30;;;;;;;;;;5082429;28;20108;-62
2023/07/29 07:04:02;;;;;;;11.40;7.90;;;;;;;;;;5085263;28;20063;-62
2023/07/29 07:06:27;;;;;;;10.02;7.95;;;;;;;;;;5082529;28;20023;-62
2023/07/29 07:08:53;;;;;;;11.82;8.00;;;;;;;;;;5103960;28;20537;-62
2023/07/29 07:11:18;;;;;;;11.13;8.02;;;;;;;;;;5108181;28;20026;-63
2023/07/29 07:13:43;;;;;;;12.38;7.93;;;;;;;;;;5106055;28;20019;-67
2023/07/29 07:16:09;;;;;;;11.80;8.18;;;;;;;;;;5103412;28;20019;-64
2023/07/29 07:18:34;;;;;;;15.30;8.73;;;;;;;;;;5109263;28;20028;-62
2023/07/29 07:20:59;;;;;;;13.15;8.75;;;;;;;;;;5105927;28;20027;-63
2023/07/29 07:23:24;;;;;;;11.68;8.25;;;;;;;;;;5104620;28;20051;-62
2023/07/29 07:25:50;;;;;;;12.15;8.40;;;;;;;;;;5116416;28;20382;-64
2023/07/29 07:28:15;;;;;;;11.95;7.97;;;;;;;;;;5116209;28;20387;-63
2023/07/29 07:30:43;;;;;;;10.00;7.40;;;;;;;;;;5114925;28;20098;-62
2023/07/29 07:33:08;;;;;;;11.65;8.25;;;;;;;;;;5107232;28;20400;-62
2023/07/29 07:35:34;;;;;;;15.23;7.63;;;;;;;;;;5112058;28;20027;-62
2023/07/29 07:38:01;;;;;;;9.85;7.50;;;;;;;;;;5113583;28;20050;-62
2023/07/29 07:40:27;;;;;;;11.63;7.88;;;;;;;;;;5108691;28;20035;-62
2023/07/29 07:42:52;;;;;;;11.50;7.30;;;;;;;;;;5108344;28;20085;-62
2023/07/29 07:45:17;;;;;;;17.77;7.93;;;;;;;;;;5106545;28;20470;-62
2023/07/29 07:47:43;;;;;;;10.57;7.22;;;;;;;;;;5106636;28;20028;-62
2023/07/29 07:50:08;;;;;;;12.18;7.53;;;;;;;;;;5106388;28;20423;-62
2023/07/29 07:52:33;;;;;;;13.65;7.47;;;;;;;;;;5107922;28;20551;-62
2023/07/29 07:54:59;;;;;;;11.70;7.68;;;;;;;;;;5114505;28;20031;-62
2023/07/29 07:57:24;;;;;;;11.05;6.80;;;;;;;;;;5113505;28;20421;-63
2023/07/29 07:59:50;;;;;;;10.65;6.60;;;;;;;;;;5107403;28;20479;-62
2023/07/29 08:02:15;;;;;;;12.15;6.90;;;;;;;;;;5109543;28;20027;-62
2023/07/29 08:04:41;;;;;;;9.93;6.85;;;;;;;;;;5114359;28;20023;-62
2023/07/29 08:07:06;;;;;;;13.30;7.07;;;;;;;;;;5115136;28;20024;-65
2023/07/29 08:09:31;;;;;;;11.85;7.18;;;;;;;;;;5113326;28;20047;-63
2023/07/29 08:11:56;;;;;;;10.98;7.47;;;;;;;;;;5107335;28;20028;-62
2023/07/29 08:14:22;;;;;;;11.38;7.28;;;;;;;;;;5108614;28;20019;-62
2023/07/29 08:16:47;;;;;;;10.40;7.60;;;;;;;;;;5112513;28;20019;-62
2023/07/29 08:19:12;;;;;;;13.70;7.70;;;;;;;;;;5113490;28;20090;-63
2023/07/29 08:21:38;;;;;;;13.20;7.80;;;;;;;;;;5111602;28;20027;-63
2023/07/29 08:24:03;;;;;;;13.13;8.00;;;;;;;;;;5096191;28;20028;-62
2023/07/29 08:26:28;;;;;;;13.05;8.13;;;;;;;;;;5099308;28;20036;-68
2023/07/29 08:28:54;;;;;;;12.40;8.02;;;;;;;;;;5105711;28;20023;-67
2023/07/29 08:31:19;;;;;;;11.82;7.50;;;;;;;;;;5109735;28;20031;-67
2023/07/29 08:33:44;;;;;;;10.23;7.03;;;;;;;;;;5107969;28;20013;-67
2023/07/29 08:36:09;;;;;;;8.10;5.95;;;;;;;;;;5104023;28;20045;-67
2023/07/29 08:38:34;;;;;;;8.57;5.32;;;;;;;;;;5109343;28;20509;-67
2023/07/29 08:41:18;;;;;;;7.57;4.40;;;;;;;;;;5101131;28;20470;-66
2023/07/29 08:43:49;;;;;;;5.97;3.60;;;;;;;;;;5105415;28;20106;-66
2023/07/29 08:46:16;;;;;;;5.10;2.80;;;;;;;;;;5104779;28;20056;-65
2023/07/29 08:48:41;;;;;;;5.90;2.42;;;;;;;;;;5105278;28;20069;-65
2023/07/29 08:51:08;;;;;;;9.90;2.58;;;;;;;;;;5111973;28;20027;-67
2023/07/29 08:53:33;;;;;;;4.88;2.63;;;;;;;;;;5109897;28;20012;-67
2023/07/29 08:55:58;;;;;;;3.80;2.17;;;;;;;;;;5112562;28;20466;-65
2023/07/29 08:58:24;;;;;;;4.72;2.47;;;;;;;;;;5113450;28;20016;-66
2023/07/29 09:00:50;;;;;;;3.75;2.15;;;;;;;;;;5111829;28;20027;-66
2023/07/29 09:03:15;;;;;;;5.38;2.40;;;;;;;;;;5109397;28;20371;-66
2023/07/29 09:05:40;;;;;;;7.03;2.30;;;;;;;;;;5098300;28;20027;-66
2023/07/29 09:08:06;;;;;;;4.50;2.33;;;;;;;;;;5112321;28;20040;-65
2023/07/29 09:10:34;;;;;;;4.30;2.33;;;;;;;;;;5113291;28;20436;-65
2023/07/29 09:13:01;;;;;;;4.40;2.35;;;;;;;;;;5103854;28;20020;-65
2023/07/29 09:15:33;;;;;;;4.10;2.13;;;;;;;;;;5103160;28;20498;-65
2023/07/29 09:17:59;;;;;;;5.57;2.38;;;;;;;;;;5109483;28;20024;-64
2023/07/29 09:20:27;;;;;;;5.03;2.33;;;;;;;;;;5115040;28;20098;-65
2023/07/29 09:22:58;;;;;;;3.45;2.00;;;;;;;;;;5112832;28;20066;-65
2023/07/29 09:25:27;;;;;;;3.40;1.90;;;;;;;;;;5100786;28;20036;-66
2023/07/29 09:27:53;;;;;;;3.90;1.85;;;;;;;;;;5106131;28;20498;-65
2023/07/29 09:30:18;;;;;;;3.50;1.98;;;;;;;;;;5102018;28;20019;-65
2023/07/29 09:32:43;;;;;;;4.88;2.03;;;;;;;;;;5105174;28;20008;-65
2023/07/29 09:35:12;;;;;;;4.07;2.13;;;;;;;;;;5105161;28;20011;-65
2023/07/29 09:37:38;;;;;;;5.10;2.30;;;;;;;;;;5104505;28;20027;-66
2023/07/29 09:40:03;;;;;;;3.17;1.70;;;;;;;;;;5105782;28;20502;-65
2023/07/29 09:42:29;;;;;;;3.63;1.75;;;;;;;;;;5105545;28;20019;-64
2023/07/29 09:44:54;;;;;;;4.65;1.67;;;;;;;;;;5105397;28;20395;-65
2023/07/29 09:47:23;;;;;;;4.20;1.60;;;;;;;;;;5103087;28;20104;-65
2023/07/29 09:49:49;;;;;;;3.72;1.50;;;;;;;;;;5105517;28;20024;-65
2023/07/29 09:52:15;;;;;;;3.22;1.20;;;;;;;;;;5106499;28;20008;-65
2023/07/29 09:54:42;;;;;;;2.28;1.10;;;;;;;;;;5104183;28;20015;-65
2023/07/29 09:57:07;;;;;;;3.15;1.30;;;;;;;;;;5102856;28;20103;-66
2023/07/29 09:59:35;;;;;;;2.75;1.23;;;;;;;;;;5102151;28;20173;-64
2023/07/29 10:02:00;;;;;;;3.50;1.38;;;;;;;;;;5101127;28;20977;-64
2023/07/29 10:04:26;;;;;;;2.72;1.20;;;;;;;;;;5098686;28;20012;-65
2023/07/29 10:06:52;;;;;;;2.90;1.27;;;;;;;;;;5108210;28;20080;-65
2023/07/29 10:09:18;;;;;;;2.35;1.15;;;;;;;;;;5110471;28;20047;-64
2023/07/29 10:11:43;;;;;;;2.38;1.20;;;;;;;;;;5113033;28;20020;-65
2023/07/29 10:14:08;;;;;;;5.43;1.30;;;;;;;;;;5110754;28;20018;-65
2023/07/29 10:16:35;;;;;;;5.20;1.17;;;;;;;;;;5114561;28;20019;-65
2023/07/29 10:19:01;;;;;;;2.80;1.45;;;;;;;;;;5106894;28;20032;-65
2023/07/29 10:21:27;;;;;;;2.85;1.20;;;;;;;;;;5103409;28;20035;-65
2023/07/29 10:23:57;;;;;;;3.95;1.00;;;;;;;;;;5105129;28;20385;-64
2023/07/29 10:26:22;;;;;;;2.22;1.10;;;;;;;;;;5106470;28;20379;-64
2023/07/29 10:28:48;;;;;;;2.78;1.00;;;;;;;;;;5111428;28;20012;-65
2023/07/29 10:31:15;;;;;;;3.13;1.10;;;;;;;;;;5110493;28;20467;-65
2023/07/29 10:33:42;;;;;;;3.42;1.00;;;;;;;;;;5105776;28;20012;-66
2023/07/29 10:36:08;;;;;;;2.72;1.20;;;;;;;;;;5101177;28;20356;-66
2023/07/29 10:38:33;;;;;;;2.70;1.20;;;;;;;;;;5110874;28;20019;-67
2023/07/29 10:41:01;;;;;;;2.47;1.02;;;;;;;;;;5104169;28;20028;-67
2023/07/29 10:43:33;;;;;;;4.28;1.40;;;;;;;;;;5106768;28;20114;-66
2023/07/29 10:46:16;;;;;;;4.32;1.20;;;;;;;;;;5108787;28;20043;-66
2023/07/29 10:48:42;;;;;;;4.05;1.45;;;;;;;;;;5112306;28;20024;-67
2023/07/29 10:51:23;;;;;;;3.58;1.52;;;;;;;;;;5107670;28;20073;-66
2023/07/29 10:53:51;;;;;;;2.75;1.30;;;;;;;;;;5113150;28;20015;-67
2023/07/29 10:56:25;;;;;;;18.63;1.60;;;;;;;;;;5100599;28;20055;-67
2023/07/29 10:58:50;;;;;;;5.55;2.40;;;;;;;;;;5108830;28;20106;-67
2023/07/29 11:01:26;;;;;;;5.05;2.03;;;;;;;;;;5103659;28;20099;-67
2023/07/29 11:04:24;;;;;;;3.17;1.40;;;;;;;;;;5098069;28;20020;-67
2023/07/29 11:07:04;;;;;;;3.42;1.60;;;;;;;;;;5099279;28;20106;-67
2023/07/29 11:09:48;;;;;;;4.70;1.70;;;;;;;;;;5098137;28;20143;-67
2023/07/29 11:12:32;;;;;;;3.65;1.67;;;;;;;;;;5103412;28;20047;-68
2023/07/29 11:14:57;;;;;;;2.35;1.20;;;;;;;;;;5112526;28;20063;-67
2023/07/29 11:17:23;;;;;;;3.20;1.30;;;;;;;;;;5110061;28;20429;-67
2023/07/29 11:19:49;;;;;;;4.13;1.50;;;;;;;;;;5108565;28;20028;-63
2023/07/29 11:22:15;;;;;;;3.83;1.40;;;;;;;;;;5108352;28;20049;-63
2023/07/29 11:24:43;;;;;;;4.68;1.40;;;;;;;;;;5102521;28;20023;-64
2023/07/29 11:27:11;;;;;;;3.03;1.38;;;;;;;;;;5093094;28;20020;-62
2023/07/29 11:29:37;;;;;;;4.10;1.45;;;;;;;;;;5105001;28;20026;-63
2023/07/29 11:32:02;;;;;;;3.65;1.27;;;;;;;;;;5110410;28;20379;-65
2023/07/29 11:34:33;;;;;;;3.38;1.42;;;;;;;;;;5112674;28;20380;-62
2023/07/29 11:36:59;;;;;;;2.75;1.27;;;;;;;;;;5109886;28;20410;-63
2023/07/29 11:39:24;;;;;;;4.57;1.20;;;;;;;;;;5112542;28;20054;-64
2023/07/29 11:41:49;;;;;;;3.30;1.00;;;;;;;;;;5112395;28;20043;-63
2023/07/29 11:44:17;;;;;;;3.88;1.30;;;;;;;;;;5113211;28;20027;-64
2023/07/29 11:46:43;;;;;;;2.33;0.95;;;;;;;;;;5110815;28;20080;-65
2023/07/29 11:49:08;;;;;;;3.05;1.27;;;;;;;;;;5109928;28;20028;-65
2023/07/29 11:51:34;;;;;;;4.20;1.20;;;;;;;;;;5097338;28;20548;-65
2023/07/29 11:54:00;;;;;;;4.30;1.00;;;;;;;;;;5096448;28;20146;-64
2023/07/29 11:56:25;;;;;;;4.50;1.40;;;;;;;;;;5115250;28;20020;-68
2023/07/29 11:58:50;;;;;;;2.67;1.10;;;;;;;;;;5115261;28;20030;-68
2023/07/29 12:01:16;;;;;;;5.07;1.15;;;;;;;;;;5117028;28;20024;-68
2023/07/29 12:03:42;;;;;;;2.17;1.10;;;;;;;;;;5108184;28;20023;-67
2023/07/29 12:06:07;;;;;;;2.28;1.08;;;;;;;;;;5116640;28;20024;-67
2023/07/29 12:08:32;;;;;;;3.45;1.20;;;;;;;;;;5115480;28;20586;-68
2023/07/29 12:10:58;;;;;;;3.13;1.17;;;;;;;;;;5116152;28;20521;-68
2023/07/29 12:13:24;;;;;;;5.32;1.38;;;;;;;;;;5116260;28;20043;-68
2023/07/29 12:15:49;;;;;;;4.70;1.10;;;;;;;;;;5116721;28;20023;-68
2023/07/29 12:18:14;;;;;;;3.42;1.20;;;;;;;;;;5114727;28;20469;-68
2023/07/29 12:20:40;;;;;;;2.33;1.00;;;;;;;;;;5115824;28;20028;-68
2023/07/29 12:23:07;;;;;;;2.20;1.08;;;;;;;;;;5114876;28;20020;-68
2023/07/29 12:25:32;;;;;;;3.15;1.20;;;;;;;;;;5116363;28;20027;-69
2023/07/29 12:28:04;;;;;;;3.08;1.20;;;;;;;;;;5115302;28;20028;-68
2023/07/29 12:30:30;;;;;;;2.92;1.00;;;;;;;;;;5114314;28;20061;-69
2023/07/29 12:32:55;;;;;;;2.97;1.15;;;;;;;;;;5114483;28;20024;-69
2023/07/29 12:35:20;;;;;;;2.00;0.90;;;;;;;;;;5116166;28;20038;-68
2023/07/29 12:37:46;;;;;;;3.28;1.42;;;;;;;;;;5116446;28;20025;-69
2023/07/29 12:40:24;;;;;;;3.92;1.20;;;;;;;;;;5107651;28;20035;-69
2023/07/29 12:42:50;;;;;;;2.80;1.10;;;;;;;;;;5095488;28;20019;-68
2023/07/29 12:45:16;;;;;;;6.05;1.23;;;;;;;;;;5097279;28;20054;-68
2023/07/29 12:47:41;;;;;;;2.38;1.00;;;;;;;;;;5111832;28;20055;-69
2023/07/29 12:50:06;;;;;;;5.10;1.30;;;;;;;;;;5113405;28;20502;-69
2023/07/29 12:52:32;;;;;;;3.45;1.38;;;;;;;;;;5113045;28;20079;-69
2023/07/29 12:54:57;;;;;;;3.63;1.40;;;;;;;;;;5115666;28;20022;-68
2023/07/29 12:57:22;;;;;;;3.33;1.15;;;;;;;;;;5114236;28;20020;-68
2023/07/29 12:59:47;;;;;;;4.05;1.13;;;;;;;;;;5113987;28;20062;-70
2023/07/29 13:02:15;;;;;;;3.42;1.50;;;;;;;;;;5096035;28;20012;-70
2023/07/29 13:04:40;;;;;;;4.47;1.60;;;;;;;;;;5104911;28;20111;-68
2023/07/29 13:07:06;;;;;;;4.30;1.13;;;;;;;;;;5106890;28;20119;-66
2023/07/29 13:09:31;;;;;;;2.17;1.00;;;;;;;;;;5111494;28;20079;-66
2023/07/29 13:11:57;;;;;;;2.47;1.13;;;;;;;;;;5106315;28;20053;-67
2023/07/29 13:14:22;;;;;;;2.30;1.08;;;;;;;;;;5109479;28;20098;-68
2023/07/29 13:16:47;;;;;;;2.08;1.00;;;;;;;;;;5126786;28;20011;-69
2023/07/29 13:19:12;;;;;;;3.22;1.20;;;;;;;;;;5133296;28;20028;-70
2023/07/29 13:21:38;;;;;;;3.67;1.10;;;;;;;;;;5133402;28;20088;-70
2023/07/29 13:24:03;;;;;;;3.72;1.20;;;;;;;;;;5132760;28;20015;-70
2023/07/29 13:26:28;;;;;;;3.03;1.35;;;;;;;;;;5126850;28;20063;-69
2023/07/29 13:28:55;;;;;;;2.40;1.15;;;;;;;;;;5137100;28;20042;-69
2023/07/29 13:31:20;;;;;;;2.53;1.20;;;;;;;;;;5133100;28;20057;-69
2023/07/29 13:33:46;;;;;;;2.83;1.35;;;;;;;;;;5137383;28;20539;-70
2023/07/29 13:36:11;;;;;;;5.40;1.65;;;;;;;;;;5136507;28;20053;-70
2023/07/29 13:38:36;;;;;;;3.20;1.38;;;;;;;;;;5137166;28;20159;-70
2023/07/29 13:41:02;;;;;;;3.55;1.35;;;;;;;;;;5132063;28;20023;-70
2023/07/29 13:43:27;;;;;;;5.72;1.58;;;;;;;;;;5137751;28;20008;-70
2023/07/29 13:45:52;;;;;;;2.45;1.40;;;;;;;;;;5137776;28;20019;-71
2023/07/29 13:48:18;;;;;;;2.97;1.50;;;;;;;;;;5137000;28;20040;-73
2023/07/29 13:50:43;;;;;;;3.20;1.40;;;;;;;;;;5127769;28;20019;-73
2023/07/29 13:53:09;;;;;;;5.82;1.40;;;;;;;;;;5116625;28;20020;-72
2023/07/29 13:55:34;;;;;;;3.17;1.40;;;;;;;;;;5112649;28;20452;-71
2023/07/29 13:57:59;;;;;;;3.78;1.23;;;;;;;;;;5096741;28;20065;-72
2023/07/29 14:00:25;;;;;;;2.78;1.30;;;;;;;;;;5104178;28;20387;-70
2023/07/29 14:02:50;;;;;;;3.53;1.60;;;;;;;;;;5115864;28;20145;-70
2023/07/29 14:05:15;;;;;;;3.13;1.40;;;;;;;;;;5113903;28;20034;-69
2023/07/29 14:07:40;;;;;;;3.25;1.60;;;;;;;;;;5114843;28;20088;-70
2023/07/29 14:10:06;;;;;;;4.15;1.73;;;;;;;;;;5118298;28;20045;-71
2023/07/29 14:12:31;;;;;;;3.95;1.58;;;;;;;;;;5125800;28;20367;-73
2023/07/29 14:14:56;;;;;;;3.08;1.45;;;;;;;;;;5127606;28;20020;-72
2023/07/29 14:17:21;;;;;;;3.00;1.67;;;;;;;;;;5126266;28;20049;-71
2023/07/29 14:19:47;;;;;;;4.65;1.75;;;;;;;;;;5120042;28;20153;-73
2023/07/29 14:22:12;;;;;;;5.55;1.92;;;;;;;;;;5117072;28;20027;-71
2023/07/29 14:24:37;;;;;;;2.95;1.45;;;;;;;;;;5113670;28;20027;-71